createdAt,value
2023-01-18T00:02:26.321Z,13.00
2023-01-18T00:05:50.145Z,12.00
2023-01-18T00:09:28.063Z,10.90
2023-01-18T00:13:28.342Z,9.30
2023-01-18T00:17:11.579Z,7.40
2023-01-18T00:20:54.326Z,8.80
2023-01-18T00:24:38.717Z,9.20
2023-01-18T00:28:03.016Z,10.30
2023-01-18T00:32:01.721Z,10.60
2023-01-18T00:35:25.905Z,10.60
2023-01-18T00:39:04.562Z,11.30
2023-01-18T00:43:01.360Z,6.90
2023-01-18T00:46:31.096Z,7.80
2023-01-18T00:50:23.998Z,8.80
2023-01-18T00:53:50.490Z,5.60
2023-01-18T00:57:46.425Z,9.50
2023-01-18T01:01:29.193Z,5.40
2023-01-18T01:05:38.149Z,5.30
2023-01-18T01:09:03.235Z,7.60
2023-01-18T01:13:22.505Z,10.00
2023-01-18T01:17:07.122Z,8.40
2023-01-18T01:20:54.514Z,7.60
2023-01-18T01:24:37.606Z,8.70
2023-01-18T01:28:06.193Z,8.10
2023-01-18T01:32:02.809Z,5.50
2023-01-18T01:35:47.190Z,5.90
2023-01-18T01:39:13.725Z,9.80
2023-01-18T01:42:52.507Z,8.00
2023-01-18T01:46:31.703Z,9.80
2023-01-18T01:50:21.221Z,8.30
2023-01-18T01:54:10.447Z,7.90
2023-01-18T01:57:42.880Z,8.90
2023-01-18T02:01:35.129Z,10.20
2023-01-18T02:05:21.205Z,6.00
2023-01-18T02:09:09.061Z,7.50
2023-01-18T02:12:56.411Z,8.40
2023-01-18T02:16:23.509Z,6.50
2023-01-18T02:20:10.620Z,6.40
2023-01-18T02:23:54.776Z,6.00
2023-01-18T02:27:25.827Z,4.60
2023-01-18T02:31:10.115Z,7.00
2023-01-18T02:34:53.176Z,3.60
2023-01-18T02:38:34.087Z,5.10
2023-01-18T02:42:28.662Z,5.90
2023-01-18T02:46:28.283Z,5.70
2023-01-18T02:49:51.860Z,3.00
2023-01-18T02:53:50.953Z,3.90
2023-01-18T02:57:35.134Z,3.10
2023-01-18T03:01:30.013Z,3.50
2023-01-18T03:04:55.827Z,3.20
2023-01-18T03:08:39.997Z,3.30
2023-01-18T03:12:45.556Z,3.50
2023-01-18T03:16:41.363Z,2.20
2023-01-18T03:20:12.724Z,2.90
2023-01-18T03:23:47.982Z,3.20
2023-01-18T03:28:02.428Z,3.20
2023-01-18T03:32:14.373Z,3.20
2023-01-18T03:35:40.962Z,2.80
2023-01-18T03:39:43.273Z,2.80
2023-01-18T03:43:16.216Z,3.00
2023-01-18T03:46:46.793Z,2.60
2023-01-18T03:50:29.270Z,2.90
2023-01-18T03:54:19.867Z,2.50
2023-01-18T03:58:11.759Z,3.20
2023-01-18T04:01:38.020Z,2.30
2023-01-18T04:05:13.421Z,3.50
2023-01-18T04:09:12.416Z,2.90
2023-01-18T04:12:36.092Z,2.00
2023-01-18T04:16:33.779Z,4.30
2023-01-18T04:19:57.883Z,5.00
2023-01-18T04:23:35.590Z,2.20
2023-01-18T04:27:13.165Z,4.00
2023-01-18T04:31:10.456Z,5.30
2023-01-18T04:34:35.697Z,6.20
2023-01-18T04:38:15.513Z,2.80
2023-01-18T04:41:50.281Z,4.80
2023-01-18T04:45:29.284Z,3.50
2023-01-18T04:49:24.835Z,4.20
2023-01-18T04:52:53.696Z,3.20
2023-01-18T04:56:28.910Z,2.20
2023-01-18T05:00:17.153Z,3.20
2023-01-18T05:03:44.285Z,2.00
2023-01-18T05:07:27.177Z,2.50
2023-01-18T05:11:06.852Z,3.00
2023-01-18T05:14:55.417Z,2.70
2023-01-18T05:18:20.173Z,3.00
2023-01-18T05:22:16.757Z,3.40
2023-01-18T05:25:42.041Z,3.80
2023-01-18T05:29:40.008Z,2.60
2023-01-18T05:33:24.485Z,3.60
2023-01-18T05:37:09.271Z,3.30
2023-01-18T05:40:32.835Z,2.60
2023-01-18T05:44:29.779Z,2.80
2023-01-18T05:47:55.324Z,3.10
2023-01-18T05:51:32.619Z,1.10
2023-01-18T05:55:30.428Z,2.80
2023-01-18T05:58:54.616Z,2.70
2023-01-18T06:02:34.822Z,2.70
2023-01-18T06:06:30.054Z,2.50
2023-01-18T06:09:55.572Z,2.00
2023-01-18T06:13:33.473Z,3.50
2023-01-18T06:17:09.122Z,1.40
2023-01-18T06:21:08.066Z,2.80
2023-01-18T06:24:33.325Z,2.80
2023-01-18T06:28:30.899Z,3.40
2023-01-18T06:32:14.582Z,2.70
2023-01-18T06:35:42.242Z,1.90
2023-01-18T06:39:36.621Z,2.50
2023-01-18T06:43:19.333Z,1.60
2023-01-18T06:47:01.870Z,2.40
2023-01-18T06:50:26.898Z,3.00
2023-01-18T06:54:25.873Z,2.50
2023-01-18T06:58:08.337Z,2.60
2023-01-18T07:01:54.079Z,2.50
2023-01-18T07:05:19.399Z,2.10
2023-01-18T07:08:57.981Z,3.40
2023-01-18T07:12:52.862Z,2.50
2023-01-18T07:16:36.712Z,2.30
2023-01-18T07:20:20.942Z,2.00
2023-01-18T07:23:47.130Z,1.90
2023-01-18T07:27:24.431Z,3.80
2023-01-18T07:31:03.626Z,4.30
2023-01-18T07:34:38.465Z,2.90
2023-01-18T07:38:37.208Z,2.90
2023-01-18T07:42:11.068Z,2.60
2023-01-18T07:45:40.081Z,1.70
2023-01-18T07:49:18.261Z,2.90
2023-01-18T07:53:13.143Z,3.00
2023-01-18T07:56:38.797Z,3.30
2023-01-18T08:00:15.230Z,3.50
2023-01-18T08:04:11.675Z,2.20
2023-01-18T08:07:36.888Z,2.00
2023-01-18T08:11:32.341Z,2.70
2023-01-18T08:15:14.776Z,3.20
2023-01-18T08:18:41.123Z,2.10
2023-01-18T08:22:36.000Z,2.00
2023-01-18T08:26:21.624Z,3.20
2023-01-18T08:30:06.436Z,3.60
2023-01-18T08:33:52.321Z,3.80
2023-01-18T08:37:36.333Z,2.90
2023-01-18T08:41:04.105Z,2.70
2023-01-18T08:44:40.706Z,3.40
2023-01-18T08:48:19.013Z,2.10
2023-01-18T08:51:54.822Z,2.70
2023-01-18T08:55:51.370Z,3.10
2023-01-18T08:59:17.571Z,6.90
2023-01-18T09:03:12.508Z,3.40
2023-01-18T09:06:37.859Z,3.40
2023-01-18T09:10:16.061Z,3.90
2023-01-18T09:14:00.950Z,3.20
2023-01-18T09:17:29.262Z,4.40
2023-01-18T09:21:13.840Z,4.60
2023-01-18T09:25:05.658Z,5.10
2023-01-18T09:28:32.579Z,4.80
2023-01-18T09:32:10.879Z,5.20
2023-01-18T09:35:47.281Z,4.00
2023-01-18T09:39:51.373Z,9.50
2023-01-18T09:43:44.055Z,15.80
2023-01-18T09:47:19.128Z,4.80
2023-01-18T09:51:19.376Z,7.30
2023-01-18T09:55:15.712Z,8.00
2023-01-18T09:58:56.805Z,15.30
2023-01-18T10:02:47.436Z,11.50
2023-01-18T10:06:23.730Z,8.70
2023-01-18T10:09:58.468Z,7.60
2023-01-18T10:13:41.034Z,12.20
2023-01-18T10:17:35.199Z,17.10
2023-01-18T10:21:34.839Z,24.50
2023-01-18T10:25:06.716Z,28.50
2023-01-18T10:29:02.375Z,14.60
2023-01-18T10:32:54.626Z,11.70
2023-01-18T10:36:39.025Z,13.10
2023-01-18T10:40:12.705Z,16.30
2023-01-18T10:43:47.023Z,18.60
2023-01-18T10:47:23.867Z,17.00
2023-01-18T10:51:25.189Z,16.50
2023-01-18T10:54:55.901Z,16.20
2023-01-18T10:58:59.441Z,17.50
2023-01-18T11:02:36.532Z,11.50
2023-01-18T11:06:05.377Z,8.10
2023-01-18T11:09:49.747Z,9.80
2023-01-18T11:13:38.607Z,11.70
2023-01-18T11:17:21.791Z,13.40
2023-01-18T11:20:55.614Z,7.00
2023-01-18T11:24:28.280Z,9.60
2023-01-18T11:28:25.547Z,9.10
2023-01-18T11:32:32.860Z,5.60
2023-01-18T11:36:02.699Z,7.90
2023-01-18T11:39:55.317Z,7.90
2023-01-18T11:43:27.950Z,6.40
2023-01-18T11:47:01.602Z,6.10
2023-01-18T11:50:42.340Z,5.00
2023-01-18T11:54:38.130Z,5.70
2023-01-18T11:58:19.351Z,5.90
2023-01-18T12:02:35.402Z,5.80
2023-01-18T12:06:10.317Z,5.10
2023-01-18T12:10:00.220Z,4.90
2023-01-18T12:13:52.371Z,5.60
2023-01-18T12:17:45.979Z,6.60
2023-01-18T12:21:35.641Z,5.60
2023-01-18T12:25:46.854Z,7.00
2023-01-18T12:29:36.442Z,6.70
2023-01-18T12:33:38.184Z,6.70
2023-01-18T12:37:50.081Z,10.10
2023-01-18T12:41:52.866Z,9.20
2023-01-18T12:45:31.311Z,14.70
2023-01-18T12:49:20.745Z,19.60
2023-01-18T12:53:11.546Z,16.60
2023-01-18T12:56:51.040Z,15.70
2023-01-18T13:00:36.557Z,28.50
2023-01-18T13:04:10.360Z,13.00
2023-01-18T13:07:43.182Z,9.80
2023-01-18T13:11:22.035Z,6.80
2023-01-18T13:15:47.449Z,10.70
2023-01-18T13:19:20.515Z,7.60
2023-01-18T13:23:08.156Z,7.50
2023-01-18T13:27:00.179Z,10.80
2023-01-18T13:30:21.828Z,14.40
2023-01-18T13:34:47.461Z,9.30
2023-01-18T13:38:14.205Z,12.30
2023-01-18T13:42:10.035Z,14.40
2023-01-18T13:46:21.733Z,15.50
2023-01-18T13:50:27.847Z,20.30
2023-01-18T13:54:17.885Z,18.20
2023-01-18T13:57:54.648Z,16.60
2023-01-18T14:01:27.472Z,15.20
2023-01-18T14:05:17.782Z,15.00
2023-01-18T14:08:51.981Z,12.30
2023-01-18T14:12:49.991Z,15.00
2023-01-18T14:16:24.799Z,16.20
2023-01-18T14:19:57.523Z,12.50
2023-01-18T14:23:52.762Z,11.50
2023-01-18T14:27:24.314Z,13.50
2023-01-18T14:31:42.855Z,13.40
2023-01-18T14:35:26.102Z,12.50
2023-01-18T14:39:17.532Z,15.00
2023-01-18T14:42:53.675Z,14.70
2023-01-18T14:46:30.665Z,12.90
2023-01-18T14:49:59.338Z,12.60
2023-01-18T14:53:57.415Z,15.00
2023-01-18T14:57:42.578Z,14.60
2023-01-18T15:01:37.917Z,16.50
2023-01-18T15:05:17.043Z,19.40
2023-01-18T15:09:03.181Z,13.20
2023-01-18T15:12:36.004Z,12.80
2023-01-18T15:16:06.358Z,13.80
2023-01-18T15:19:50.623Z,13.70
2023-01-18T15:23:45.220Z,13.20
2023-01-18T15:27:34.382Z,15.90
2023-01-18T15:31:16.779Z,16.20
2023-01-18T15:35:00.736Z,15.00
2023-01-18T15:38:45.622Z,15.80
2023-01-18T15:42:11.240Z,15.20
2023-01-18T15:45:51.481Z,16.90
2023-01-18T15:49:48.804Z,33.10
2023-01-18T15:53:24.353Z,38.40
2023-01-18T15:57:19.108Z,29.20
2023-01-18T16:00:45.842Z,38.30
2023-01-18T16:04:25.781Z,29.40
2023-01-18T16:08:21.760Z,24.10
2023-01-18T16:11:57.483Z,20.20
2023-01-18T16:15:46.830Z,18.80
2023-01-18T16:19:21.536Z,17.50
2023-01-18T16:22:53.995Z,16.90
2023-01-18T16:26:48.598Z,17.10
2023-01-18T16:30:40.864Z,15.40
2023-01-18T16:34:27.764Z,16.70
2023-01-18T16:37:54.440Z,15.30
2023-01-18T16:41:56.223Z,17.40
2023-01-18T16:45:19.911Z,19.20
2023-01-18T16:48:57.881Z,19.60
2023-01-18T16:52:55.162Z,24.30
2023-01-18T16:56:20.089Z,21.30
2023-01-18T16:59:57.019Z,22.00
2023-01-18T17:03:36.184Z,21.60
2023-01-18T17:07:31.406Z,25.30
2023-01-18T17:11:18.156Z,23.40
2023-01-18T17:14:45.842Z,20.90
2023-01-18T17:18:25.773Z,21.60
2023-01-18T17:22:01.521Z,18.70
2023-01-18T17:25:37.877Z,20.80
2023-01-18T17:29:34.096Z,20.30
2023-01-18T17:33:02.068Z,22.00
2023-01-18T17:36:40.899Z,21.30
2023-01-18T17:40:40.911Z,23.70
2023-01-18T17:44:07.597Z,20.60
2023-01-18T17:48:05.133Z,30.20
2023-01-18T17:51:47.731Z,24.30
2023-01-18T17:55:17.886Z,21.30
2023-01-18T17:59:11.368Z,22.80
2023-01-18T18:02:35.672Z,22.20
2023-01-18T18:06:26.210Z,20.50
2023-01-18T18:10:15.347Z,21.00
2023-01-18T18:13:43.052Z,22.70
2023-01-18T18:17:20.040Z,19.20
2023-01-18T18:20:59.638Z,20.70
2023-01-18T18:24:52.122Z,24.60
2023-01-18T18:28:36.774Z,31.60
2023-01-18T18:32:02.420Z,26.30
2023-01-18T18:35:40.196Z,28.80
2023-01-18T18:39:36.838Z,26.80
2023-01-18T18:43:03.567Z,24.60
2023-01-18T18:46:57.054Z,19.80
2023-01-18T18:50:25.674Z,21.50
2023-01-18T18:54:21.380Z,28.00
2023-01-18T18:58:06.816Z,31.10
2023-01-18T19:01:54.650Z,43.30
2023-01-18T19:05:18.470Z,29.30
2023-01-18T19:08:57.317Z,43.00
2023-01-18T19:12:55.534Z,35.00
2023-01-18T19:16:19.151Z,41.70
2023-01-18T19:19:59.790Z,31.70
2023-01-18T19:23:36.643Z,42.20
2023-01-18T19:27:12.476Z,70.80
2023-01-18T19:30:49.840Z,107.40
2023-01-18T19:34:32.153Z,55.20
2023-01-18T19:38:06.633Z,25.20
2023-01-18T19:41:44.689Z,18.60
2023-01-18T19:45:27.822Z,22.00
2023-01-18T19:49:03.273Z,22.30
2023-01-18T19:52:58.745Z,20.80
2023-01-18T19:56:25.215Z,21.90
2023-01-18T20:00:00.635Z,21.60
2023-01-18T20:03:42.444Z,16.80
2023-01-18T20:07:18.961Z,20.80
2023-01-18T20:11:15.945Z,19.80
2023-01-18T20:14:44.026Z,17.50
2023-01-18T20:18:19.130Z,24.70
2023-01-18T20:21:55.337Z,25.50
2023-01-18T20:25:33.410Z,19.70
2023-01-18T20:29:11.156Z,23.00
2023-01-18T20:32:48.512Z,25.80
2023-01-18T20:36:26.264Z,35.30
2023-01-18T20:40:04.233Z,33.90
2023-01-18T20:43:41.506Z,26.90
2023-01-18T20:47:19.594Z,20.60
2023-01-18T20:51:00.615Z,23.50
2023-01-18T20:54:36.193Z,28.20
2023-01-18T20:58:12.461Z,25.80
2023-01-18T21:01:50.917Z,32.30
2023-01-18T21:05:30.754Z,37.10
2023-01-18T21:09:07.355Z,37.80
2023-01-18T21:12:42.807Z,32.10
2023-01-18T21:16:23.630Z,20.30
2023-01-18T21:19:58.554Z,25.10
2023-01-18T21:23:40.781Z,25.10
2023-01-18T21:27:16.501Z,17.30
2023-01-18T21:30:52.797Z,21.10
2023-01-18T21:34:49.783Z,21.90
2023-01-18T21:38:14.173Z,23.20
2023-01-18T21:42:11.179Z,22.80
2023-01-18T21:45:57.380Z,21.50
2023-01-18T21:50:16.560Z,22.20
2023-01-18T21:54:04.049Z,19.10
2023-01-18T21:58:15.187Z,21.40
2023-01-18T22:01:44.442Z,24.50
2023-01-18T22:05:17.161Z,23.70
2023-01-18T22:08:56.738Z,25.40
2023-01-18T22:12:36.017Z,26.50
2023-01-18T22:16:10.514Z,23.60
2023-01-18T22:20:07.615Z,26.40
2023-01-18T22:23:34.587Z,26.20
2023-01-18T22:27:29.634Z,26.70
2023-01-18T22:30:55.662Z,22.30
2023-01-18T22:34:34.945Z,24.50
2023-01-18T22:38:11.621Z,26.30
2023-01-18T22:42:07.481Z,25.30
2023-01-18T22:45:54.884Z,23.70
2023-01-18T22:49:21.809Z,26.40
2023-01-18T22:53:16.623Z,24.10
2023-01-18T22:57:00.604Z,22.30
2023-01-18T23:00:28.262Z,22.10
2023-01-18T23:04:05.078Z,23.70
2023-01-18T23:07:39.953Z,23.90
2023-01-18T23:11:37.202Z,24.20
2023-01-18T23:15:19.922Z,22.60
2023-01-18T23:18:46.283Z,22.70
2023-01-18T23:22:22.087Z,22.00
2023-01-18T23:26:18.629Z,22.70
2023-01-18T23:29:42.264Z,22.20
2023-01-18T23:33:21.819Z,19.80
2023-01-18T23:36:57.876Z,18.40
2023-01-18T23:40:54.600Z,21.50
2023-01-18T23:44:37.813Z,19.40
2023-01-18T23:48:40.379Z,18.90
2023-01-18T23:52:42.099Z,20.10
2023-01-18T23:56:10.027Z,18.50
2023-01-18T23:59:46.553Z,19.30
